📊 Raw Sensor Data
Showing records 47976 to 48000 of 85,094 total
| ID | Distance (ft) | Battery V | Battery A | Int Temp (°F) | Int Humid (%) | Ext Temp (°F) | Solar V | RSSI | SNR | Time Stamp |
|---|---|---|---|---|---|---|---|---|---|---|
| 37131 | -- | 3.89 | 5 | 58 | 40 | 57 | 4.50 | -77 | 9 | 04/07/2025 08:16 AM |
| 37130 | -- | 3.94 | 0 | 57 | 40 | 57 | 4.50 | -77 | 8 | 04/07/2025 08:01 AM |
| 37129 | -- | 3.88 | 7 | 56 | 40 | 56 | 4.50 | -76 | 9 | 04/07/2025 07:45 AM |
| 37128 | -- | 3.81 | 0 | 55 | 40 | 56 | 4.50 | -76 | 8 | 04/07/2025 07:30 AM |
| 37127 | -- | 3.80 | -5 | 55 | 41 | 55 | 4.50 | -76 | 8 | 04/07/2025 07:16 AM |
| 37126 | -- | 3.79 | -36 | 54 | 41 | 55 | 4.40 | -76 | 8 | 04/07/2025 07:00 AM |
| 37125 | -- | 3.80 | -5 | 54 | 41 | 54 | 1.00 | -76 | 8 | 04/07/2025 06:45 AM |
| 37124 | -- | 3.86 | -5 | 54 | 41 | 54 | 0.30 | -76 | 8 | 04/07/2025 06:30 AM |
| 37123 | -- | 3.80 | -5 | 54 | 41 | 54 | 0.10 | -77 | 8 | 04/07/2025 06:16 AM |
| 37122 | -- | 3.80 | -5 | 54 | 41 | 54 | 0.10 | -76 | 8 | 04/07/2025 06:00 AM |
| 37121 | -- | 3.80 | -5 | 54 | 41 | 54 | 0.00 | -76 | 8 | 04/07/2025 05:45 AM |
| 37120 | -- | 3.86 | -5 | 54 | 41 | 54 | 0.10 | -76 | 9 | 04/07/2025 05:30 AM |
| 37119 | -- | 3.80 | -5 | 54 | 41 | 54 | 0.10 | -77 | 8 | 04/07/2025 05:15 AM |
| 37118 | -- | 3.80 | -5 | 54 | 41 | 54 | 0.00 | -77 | 8 | 04/07/2025 05:00 AM |
| 37117 | -- | 3.80 | -5 | 54 | 41 | 55 | 0.00 | -76 | 8 | 04/07/2025 04:45 AM |
| 37116 | -- | 3.86 | -5 | 54 | 41 | 55 | 0.00 | -77 | 7 | 04/07/2025 04:30 AM |
| 37115 | -- | 3.86 | -5 | 55 | 41 | 55 | 0.00 | -76 | 8 | 04/07/2025 04:15 AM |
| 37114 | -- | 3.80 | -5 | 55 | 41 | 55 | 0.00 | -77 | 8 | 04/07/2025 04:00 AM |
| 37113 | -- | 3.80 | -5 | 54 | 41 | 55 | 0.00 | -78 | 8 | 04/07/2025 03:45 AM |
| 37112 | -- | 3.80 | -5 | 55 | 41 | 55 | 0.00 | -77 | 8 | 04/07/2025 03:30 AM |
| 37111 | -- | 3.80 | -5 | 55 | 41 | 55 | 0.00 | -77 | 8 | 04/07/2025 03:15 AM |
| 37110 | -- | 3.87 | -5 | 54 | 41 | 55 | 0.10 | -77 | 8 | 04/07/2025 03:00 AM |
| 37109 | -- | 3.81 | -18 | 54 | 41 | 55 | 0.10 | -77 | 8 | 04/07/2025 02:46 AM |
| 37108 | 15.3 | 3.81 | -5 | 54 | 41 | 55 | 0.10 | -77 | 8 | 04/07/2025 02:30 AM |
| 37107 | 15.3 | 3.87 | -5 | 54 | 41 | 55 | 0.00 | -76 | 8 | 04/07/2025 02:15 AM |